Time,TemperatureF,DewpointF,PressureIn,WindDirection,WindDirectionDegrees,WindSpeedMPH,WindSpeedGustMPH,Humidity,HourlyPrecipIn,Conditions,Clouds,dailyrainin,SoftwareType,DateUTC
2013-03-13 00:03:00,56.5,40.1,29.86,NE,37,0.0,0.0,54,0.00,,---,0.49,VWS V14.01,2013-03-13 04:03:00,
2013-03-13 00:08:00,56.2,39.3,29.86,North,352,0.0,3.0,53,0.00,,---,0.49,VWS V14.01,2013-03-13 04:08:00,
2013-03-13 00:13:00,55.9,39.0,29.86,North,352,0.0,0.0,53,0.00,,---,0.49,VWS V14.01,2013-03-13 04:13:00,
2013-03-13 00:18:00,55.7,39.3,29.86,NW,325,2.0,2.0,54,0.00,,---,0.49,VWS V14.01,2013-03-13 04:18:00,
2013-03-13 00:23:00,55.4,38.6,29.86,NW,325,0.0,0.0,53,0.00,,---,0.49,VWS V14.01,2013-03-13 04:23:00,
2013-03-13 00:28:00,55.1,39.2,29.86,NNE,14,0.0,2.0,55,0.00,,---,0.49,VWS V14.01,2013-03-13 04:28:00,
2013-03-13 00:33:00,55.0,38.2,29.87,North,0,0.0,4.0,53,0.00,,---,0.49,VWS V14.01,2013-03-13 04:33:00,
2013-03-13 00:38:00,54.8,39.4,29.87,North,0,0.0,4.0,56,0.00,,---,0.49,VWS V14.01,2013-03-13 04:38:00,
2013-03-13 00:43:00,54.7,40.7,29.87,North,0,0.0,0.0,59,0.00,,---,0.49,VWS V14.01,2013-03-13 04:43:00,
2013-03-13 00:48:00,54.4,38.6,29.87,North,7,0.0,1.0,55,0.00,,---,0.49,VWS V14.01,2013-03-13 04:48:00,
2013-03-13 00:53:00,54.2,37.9,29.87,North,8,3.0,3.0,54,0.00,,---,0.49,VWS V14.01,2013-03-13 04:53:00,
2013-03-13 00:58:00,54.1,37.4,29.87,North,8,0.0,3.0,53,0.00,,---,0.49,VWS V14.01,2013-03-13 04:58:00,
2013-03-13 01:03:00,53.9,38.1,29.88,North,8,0.0,0.0,55,0.00,,---,0.00,VWS V14.01,2013-03-13 05:03:00,
2013-03-13 01:08:00,53.8,38.0,29.88,North,8,0.0,0.0,55,0.00,,---,0.00,VWS V14.01,2013-03-13 05:08:00,
2013-03-13 01:13:00,53.5,37.8,29.88,NNE,31,0.0,1.0,55,0.00,,---,0.00,VWS V14.01,2013-03-13 05:13:00,
2013-03-13 01:18:00,53.3,37.6,29.88,NNE,31,0.0,1.0,55,0.00,,---,0.00,VWS V14.01,2013-03-13 05:18:00,
2013-03-13 01:23:00,53.2,36.5,29.88,NNE,28,0.0,0.0,53,0.00,,---,0.00,VWS V14.01,2013-03-13 05:23:00,
2013-03-13 01:28:00,53.1,37.8,29.88,NNE,28,0.0,0.0,56,0.00,,---,0.00,VWS V14.01,2013-03-13 05:28:00,
2013-03-13 01:33:00,52.9,36.7,29.88,NNE,28,0.0,0.0,54,0.00,,---,0.00,VWS V14.01,2013-03-13 05:33:00,
2013-03-13 01:38:00,52.6,37.4,29.88,NNE,28,0.0,2.0,56,0.00,,---,0.00,VWS V14.01,2013-03-13 05:38:00,
2013-03-13 01:43:00,52.5,37.3,29.88,NNE,28,0.0,0.0,56,0.00,,---,0.00,VWS V14.01,2013-03-13 05:43:00,
2013-03-13 01:48:00,52.3,36.6,29.89,NNE,28,0.0,0.0,55,0.00,,---,0.00,VWS V14.01,2013-03-13 05:48:00,
2013-03-13 01:53:00,52.2,37.4,29.89,NNE,28,0.0,0.0,57,0.00,,---,0.00,VWS V14.01,2013-03-13 05:53:00,
2013-03-13 01:58:00,52.0,36.8,29.89,NNE,28,0.0,0.0,56,0.00,,---,0.00,VWS V14.01,2013-03-13 05:58:00,
2013-03-13 02:03:00,51.9,36.7,29.90,NNE,28,0.0,0.0,56,0.00,,---,0.00,VWS V14.01,2013-03-13 06:03:00,
2013-03-13 02:08:00,51.7,37.0,29.90,NNE,28,0.0,0.0,57,0.00,,---,0.00,VWS V14.01,2013-03-13 06:08:00,
2013-03-13 02:13:00,51.6,37.3,29.90,NNE,28,0.0,0.0,58,0.00,,---,0.00,VWS V14.01,2013-03-13 06:13:00,
2013-03-13 02:18:00,51.4,37.6,29.90,NNE,28,0.0,0.0,59,0.00,,---,0.00,VWS V14.01,2013-03-13 06:18:00,
2013-03-13 02:23:00,51.3,39.5,29.90,NNE,28,0.0,0.0,64,0.00,,---,0.00,VWS V14.01,2013-03-13 06:23:00,
2013-03-13 02:28:00,51.1,39.0,29.90,NNE,28,0.0,0.0,63,0.00,,---,0.00,VWS V14.01,2013-03-13 06:28:00,
2013-03-13 02:33:00,51.0,41.2,29.90,NNE,28,0.0,0.0,69,0.00,,---,0.00,VWS V14.01,2013-03-13 06:33:00,
2013-03-13 02:38:00,50.8,39.1,29.90,NNE,28,0.0,0.0,64,0.00,,---,0.00,VWS V14.01,2013-03-13 06:38:00,
2013-03-13 02:43:00,50.8,40.2,29.90,NNE,28,0.0,0.0,67,0.00,,---,0.00,VWS V14.01,2013-03-13 06:43:00,
2013-03-13 02:48:00,50.7,40.9,29.90,NNE,28,0.0,0.0,69,0.00,,---,0.00,VWS V14.01,2013-03-13 06:48:00,
2013-03-13 02:53:00,50.4,40.2,29.90,NNE,28,0.0,0.0,68,0.00,,---,0.00,VWS V14.01,2013-03-13 06:53:00,
2013-03-13 02:58:00,50.2,40.8,29.90,NNE,28,0.0,0.0,70,0.00,,---,0.00,VWS V14.01,2013-03-13 06:58:00,
2013-03-13 03:03:00,49.9,40.5,29.91,NNE,28,0.0,0.0,70,0.00,,---,0.00,VWS V14.01,2013-03-13 07:03:00,
2013-03-13 03:08:00,49.6,39.5,29.91,NNE,28,0.0,0.0,68,0.00,,---,0.00,VWS V14.01,2013-03-13 07:08:00,
2013-03-13 03:13:00,49.4,40.4,29.91,NNE,28,0.0,0.0,71,0.00,,---,0.00,VWS V14.01,2013-03-13 07:13:00,
2013-03-13 03:18:00,49.1,38.6,29.91,NNE,28,0.0,1.0,67,0.00,,---,0.00,VWS V14.01,2013-03-13 07:18:00,
2013-03-13 03:23:00,48.8,38.3,29.91,NNE,28,0.0,0.0,67,0.00,,---,0.00,VWS V14.01,2013-03-13 07:23:00,
2013-03-13 03:28:00,48.6,38.2,29.91,NNE,28,0.0,0.0,67,0.00,,---,0.00,VWS V14.01,2013-03-13 07:28:00,
2013-03-13 03:33:00,48.5,38.1,29.91,NNE,28,0.0,0.0,67,0.00,,---,0.00,VWS V14.01,2013-03-13 07:33:00,
2013-03-13 03:38:00,48.5,38.4,29.91,NNE,28,0.0,0.0,68,0.00,,---,0.00,VWS V14.01,2013-03-13 07:38:00,
2013-03-13 03:43:00,48.3,37.1,29.91,NNE,28,0.0,0.0,65,0.00,,---,0.00,VWS V14.01,2013-03-13 07:43:00,
2013-03-13 03:48:00,48.2,37.8,29.91,NNE,28,0.0,0.0,67,0.00,,---,0.00,VWS V14.01,2013-03-13 07:48:00,
2013-03-13 03:53:00,48.0,38.3,29.91,NNE,28,0.0,0.0,69,0.00,,---,0.00,VWS V14.01,2013-03-13 07:53:00,
2013-03-13 03:58:00,47.9,38.6,29.91,NNE,28,0.0,0.0,70,0.00,,---,0.00,VWS V14.01,2013-03-13 07:58:00,
2013-03-13 04:03:00,47.7,36.9,29.92,NNE,28,0.0,0.0,66,0.00,,---,0.00,VWS V14.01,2013-03-13 08:03:00,
2013-03-13 04:08:00,47.6,38.0,29.92,NNE,28,0.0,0.0,69,0.00,,---,0.00,VWS V14.01,2013-03-13 08:08:00,
2013-03-13 04:13:00,47.4,38.1,29.92,NNE,28,0.0,0.0,70,0.00,,---,0.00,VWS V14.01,2013-03-13 08:13:00,
2013-03-13 04:18:00,47.3,37.3,29.92,NNE,28,0.0,0.0,68,0.00,,---,0.00,VWS V14.01,2013-03-13 08:18:00,
2013-03-13 04:23:00,47.1,37.8,29.92,NNE,28,0.0,0.0,70,0.00,,---,0.00,VWS V14.01,2013-03-13 08:23:00,
2013-03-13 04:28:00,47.0,37.0,29.92,NNE,28,0.0,0.0,68,0.00,,---,0.00,VWS V14.01,2013-03-13 08:28:00,
2013-03-13 04:33:00,46.8,36.8,29.93,NNE,28,0.0,0.0,68,0.00,,---,0.00,VWS V14.01,2013-03-13 08:33:00,
2013-03-13 04:38:00,46.8,37.2,29.93,NNE,28,0.0,0.0,69,0.00,,---,0.00,VWS V14.01,2013-03-13 08:38:00,
2013-03-13 04:43:00,46.7,37.8,29.93,NNE,28,0.0,0.0,71,0.00,,---,0.00,VWS V14.01,2013-03-13 08:43:00,
2013-03-13 04:48:00,46.5,37.3,29.93,NNE,28,0.0,0.0,70,0.00,,---,0.00,VWS V14.01,2013-03-13 08:48:00,
2013-03-13 04:53:00,46.4,36.8,29.93,NNE,28,0.0,0.0,69,0.00,,---,0.00,VWS V14.01,2013-03-13 08:53:00,
2013-03-13 04:58:00,46.2,37.3,29.93,NNE,28,0.0,0.0,71,0.00,,---,0.00,VWS V14.01,2013-03-13 08:58:00,
2013-03-13 05:03:00,46.0,36.4,29.94,NNE,28,0.0,0.0,69,0.00,,---,0.00,VWS V14.01,2013-03-13 09:03:00,
2013-03-13 05:08:00,45.7,36.5,29.94,NNE,28,0.0,0.0,70,0.00,,---,0.00,VWS V14.01,2013-03-13 09:08:00,
2013-03-13 05:13:00,45.4,36.6,29.94,NNE,28,0.0,0.0,71,0.00,,---,0.00,VWS V14.01,2013-03-13 09:13:00,
2013-03-13 05:18:00,45.2,36.4,29.94,NNE,28,0.0,0.0,71,0.00,,---,0.00,VWS V14.01,2013-03-13 09:18:00,
2013-03-13 05:23:00,45.1,36.3,29.94,NNE,28,0.0,0.0,71,0.00,,---,0.00,VWS V14.01,2013-03-13 09:23:00,
2013-03-13 05:28:00,44.9,35.7,29.94,NNE,28,0.0,0.0,70,0.00,,---,0.00,VWS V14.01,2013-03-13 09:28:00,
2013-03-13 05:33:00,44.8,36.0,29.95,NNE,28,0.0,0.0,71,0.00,,---,0.00,VWS V14.01,2013-03-13 09:33:00,
2013-03-13 05:38:00,44.8,36.7,29.95,NNE,28,0.0,0.0,73,0.00,,---,0.00,VWS V14.01,2013-03-13 09:38:00,
2013-03-13 05:43:00,44.8,35.6,29.95,NNE,28,0.0,0.0,70,0.00,,---,0.00,VWS V14.01,2013-03-13 09:43:00,
2013-03-13 05:48:00,44.6,36.2,29.95,NNE,28,0.0,0.0,72,0.00,,---,0.00,VWS V14.01,2013-03-13 09:48:00,
2013-03-13 05:53:00,44.5,36.0,29.95,NNE,28,0.0,0.0,72,0.00,,---,0.00,VWS V14.01,2013-03-13 09:53:00,
2013-03-13 05:58:00,44.3,35.9,29.95,NNE,28,0.0,0.0,72,0.00,,---,0.00,VWS V14.01,2013-03-13 09:58:00,
2013-03-13 06:03:00,44.3,35.5,29.96,NNE,28,0.0,0.0,71,0.00,,---,0.00,VWS V14.01,2013-03-13 10:03:00,
2013-03-13 06:08:00,44.2,35.0,29.96,NNE,28,0.0,0.0,70,0.00,,---,0.00,VWS V14.01,2013-03-13 10:08:00,
2013-03-13 06:13:00,44.1,35.7,29.96,NNE,28,0.0,0.0,72,0.00,,---,0.00,VWS V14.01,2013-03-13 10:13:00,
2013-03-13 06:18:00,44.1,36.7,29.96,NNE,28,0.0,0.0,75,0.00,,---,0.00,VWS V14.01,2013-03-13 10:18:00,
2013-03-13 06:23:00,43.9,36.8,29.96,NNE,28,0.0,0.0,76,0.00,,---,0.00,VWS V14.01,2013-03-13 10:23:00,
2013-03-13 06:28:00,43.9,36.8,29.96,NNE,28,0.0,0.0,76,0.00,,---,0.00,VWS V14.01,2013-03-13 10:28:00,
2013-03-13 06:33:00,43.9,36.8,29.97,NNE,28,0.0,0.0,76,0.00,,---,0.00,VWS V14.01,2013-03-13 10:33:00,
2013-03-13 06:38:00,43.8,36.7,29.97,NNE,28,0.0,0.0,76,0.00,,---,0.00,VWS V14.01,2013-03-13 10:38:00,
2013-03-13 06:43:00,43.8,36.7,29.97,NNE,28,0.0,0.0,76,0.00,,---,0.00,VWS V14.01,2013-03-13 10:43:00,
2013-03-13 06:48:00,43.6,36.5,29.98,NNE,28,0.0,0.0,76,0.00,,---,0.00,VWS V14.01,2013-03-13 10:48:00,
2013-03-13 06:53:00,43.5,36.5,29.98,NNE,28,0.0,0.0,76,0.00,,---,0.00,VWS V14.01,2013-03-13 10:53:00,
2013-03-13 06:58:00,43.3,36.3,29.98,NNE,28,0.0,0.0,76,0.00,,---,0.00,VWS V14.01,2013-03-13 10:58:00,
2013-03-13 07:03:00,43.2,36.5,29.98,NNE,28,0.0,0.0,77,0.00,,---,0.00,VWS V14.01,2013-03-13 11:03:00,
2013-03-13 07:08:00,43.1,36.7,29.98,NNE,28,0.0,0.0,78,0.00,,---,0.00,VWS V14.01,2013-03-13 11:08:00,
2013-03-13 07:13:00,42.8,36.4,29.98,NNE,28,0.0,0.0,78,0.00,,---,0.00,VWS V14.01,2013-03-13 11:13:00,
2013-03-13 07:18:00,42.5,36.8,29.99,NNE,28,0.0,0.0,80,0.00,,---,0.00,VWS V14.01,2013-03-13 11:18:00,
2013-03-13 07:23:00,42.3,36.3,29.99,NNE,28,0.0,0.0,79,0.00,,---,0.00,VWS V14.01,2013-03-13 11:23:00,
2013-03-13 07:28:00,42.2,36.2,29.99,NNE,28,0.0,0.0,79,0.00,,---,0.00,VWS V14.01,2013-03-13 11:28:00,
2013-03-13 07:33:00,42.1,36.4,29.99,NNE,28,0.0,0.0,80,0.00,,---,0.00,VWS V14.01,2013-03-13 11:33:00,
2013-03-13 07:38:00,41.9,36.5,29.99,NNE,28,0.0,0.0,81,0.00,,---,0.00,VWS V14.01,2013-03-13 11:38:00,
2013-03-13 07:43:00,41.9,36.5,29.99,NNE,28,0.0,0.0,81,0.00,,---,0.00,VWS V14.01,2013-03-13 11:43:00,
2013-03-13 07:48:00,41.8,36.4,29.99,NNE,28,0.0,0.0,81,0.00,,---,0.00,VWS V14.01,2013-03-13 11:48:00,
2013-03-13 07:53:00,41.6,36.2,29.99,NNE,28,0.0,0.0,81,0.00,,---,0.00,VWS V14.01,2013-03-13 11:53:00,
2013-03-13 07:58:00,41.6,36.2,29.99,NNE,28,0.0,0.0,81,0.00,,---,0.00,VWS V14.01,2013-03-13 11:58:00,
2013-03-13 08:03:00,41.5,36.1,29.99,NNE,28,0.0,0.0,81,0.00,,---,0.00,VWS V14.01,2013-03-13 12:03:00,
2013-03-13 08:08:00,41.5,36.1,29.99,NNE,28,0.0,0.0,81,0.00,,---,0.00,VWS V14.01,2013-03-13 12:08:00,
2013-03-13 08:13:00,41.3,35.9,29.99,NNE,28,0.0,0.0,81,0.00,,---,0.00,VWS V14.01,2013-03-13 12:13:00,
2013-03-13 08:18:00,41.2,35.8,30.00,NNE,28,0.0,0.0,81,0.00,,---,0.00,VWS V14.01,2013-03-13 12:18:00,
2013-03-13 08:23:00,41.2,36.1,30.00,NNE,28,0.0,0.0,82,0.00,,---,0.00,VWS V14.01,2013-03-13 12:23:00,
2013-03-13 08:28:00,41.3,35.6,30.00,NNE,28,0.0,0.0,80,0.00,,---,0.00,VWS V14.01,2013-03-13 12:28:00,
2013-03-13 08:33:00,41.5,35.8,30.01,NNE,28,0.0,0.0,80,0.00,,---,0.00,VWS V14.01,2013-03-13 12:33:00,
2013-03-13 08:38:00,41.8,35.5,30.01,NNE,28,0.0,0.0,78,0.00,,---,0.00,VWS V14.01,2013-03-13 12:38:00,
2013-03-13 08:43:00,42.2,35.5,30.01,NNE,28,0.0,0.0,77,0.00,,---,0.00,VWS V14.01,2013-03-13 12:43:00,
2013-03-13 08:48:00,42.5,35.8,30.01,NNE,28,0.0,0.0,77,0.00,,---,0.00,VWS V14.01,2013-03-13 12:48:00,
2013-03-13 08:53:00,42.8,35.4,30.01,NNE,28,0.0,0.0,75,0.00,,---,0.00,VWS V14.01,2013-03-13 12:53:00,
2013-03-13 08:58:00,43.1,35.0,30.01,NNE,28,0.0,0.0,73,0.00,,---,0.00,VWS V14.01,2013-03-13 12:58:00,
2013-03-13 09:03:00,43.5,35.8,30.02,NNE,28,0.0,0.0,74,0.00,,---,0.00,VWS V14.01,2013-03-13 13:03:00,
2013-03-13 09:08:00,43.8,35.4,30.02,NNW,343,0.0,0.0,72,0.00,,---,0.00,VWS V14.01,2013-03-13 13:08:00,
2013-03-13 09:13:00,44.2,35.4,30.02,NNW,343,0.0,0.0,71,0.00,,---,0.00,VWS V14.01,2013-03-13 13:13:00,
2013-03-13 09:18:00,44.5,35.3,30.02,NNW,343,0.0,0.0,70,0.00,,---,0.00,VWS V14.01,2013-03-13 13:18:00,
2013-03-13 09:23:00,44.8,35.3,30.02,NNW,343,0.0,0.0,69,0.00,,---,0.00,VWS V14.01,2013-03-13 13:23:00,
2013-03-13 09:28:00,45.1,35.2,30.02,NE,37,0.0,2.0,68,0.00,,---,0.00,VWS V14.01,2013-03-13 13:28:00,
2013-03-13 09:33:00,45.4,35.5,30.02,NE,37,0.0,0.0,68,0.00,,---,0.00,VWS V14.01,2013-03-13 13:33:00,
2013-03-13 09:38:00,45.8,36.2,30.02,NNE,28,1.0,3.0,69,0.00,,---,0.00,VWS V14.01,2013-03-13 13:38:00,
2013-03-13 09:43:00,46.2,34.7,30.02,ENE,72,0.0,0.0,64,0.00,,---,0.00,VWS V14.01,2013-03-13 13:43:00,
2013-03-13 09:48:00,46.5,35.4,30.02,ENE,72,0.0,0.0,65,0.00,,---,0.00,VWS V14.01,2013-03-13 13:48:00,
2013-03-13 09:53:00,46.8,35.7,30.02,NE,54,0.0,0.0,65,0.00,,---,0.00,VWS V14.01,2013-03-13 13:53:00,
2013-03-13 09:58:00,47.3,36.2,30.02,NE,54,2.0,3.0,65,0.00,,---,0.00,VWS V14.01,2013-03-13 13:58:00,
2013-03-13 10:03:00,47.7,36.1,30.02,NE,54,0.0,0.0,64,0.00,,---,0.00,VWS V14.01,2013-03-13 14:03:00,
2013-03-13 10:08:00,48.0,35.6,30.02,NE,40,3.0,6.0,62,0.00,,---,0.00,VWS V14.01,2013-03-13 14:08:00,
2013-03-13 10:13:00,48.5,35.7,30.02,NNE,31,0.0,0.0,61,0.00,,---,0.00,VWS V14.01,2013-03-13 14:13:00,
2013-03-13 10:18:00,48.8,36.4,30.02,NE,41,0.0,3.0,62,0.00,,---,0.00,VWS V14.01,2013-03-13 14:18:00,
2013-03-13 10:23:00,49.2,36.8,30.02,ESE,102,0.0,0.0,62,0.00,,---,0.00,VWS V14.01,2013-03-13 14:23:00,
2013-03-13 10:28:00,49.6,35.9,30.02,ESE,102,0.0,2.0,59,0.00,,---,0.00,VWS V14.01,2013-03-13 14:28:00,
2013-03-13 10:33:00,50.1,35.0,30.01,North,3,1.0,1.0,56,0.00,,---,0.00,VWS V14.01,2013-03-13 14:33:00,
2013-03-13 10:38:00,50.5,34.5,30.01,NW,312,2.0,4.0,54,0.00,,---,0.00,VWS V14.01,2013-03-13 14:38:00,
2013-03-13 10:43:00,51.0,34.5,30.01,WNW,287,0.0,0.0,53,0.00,,---,0.00,VWS V14.01,2013-03-13 14:43:00,
2013-03-13 10:48:00,51.3,34.3,30.01,North,10,0.0,5.0,52,0.00,,---,0.00,VWS V14.01,2013-03-13 14:48:00,
2013-03-13 10:53:00,51.6,33.6,30.01,West,268,0.0,2.0,50,0.00,,---,0.00,VWS V14.01,2013-03-13 14:53:00,
2013-03-13 10:58:00,52.0,31.9,30.01,NNE,30,0.0,3.0,46,0.00,,---,0.00,VWS V14.01,2013-03-13 14:58:00,
2013-03-13 11:03:00,52.3,31.6,30.01,WNW,295,3.0,3.0,45,0.00,,---,0.00,VWS V14.01,2013-03-13 15:03:00,
2013-03-13 11:08:00,52.8,32.6,30.01,NW,305,0.0,5.0,46,0.00,,---,0.00,VWS V14.01,2013-03-13 15:08:00,
2013-03-13 11:13:00,53.1,31.2,30.01,WSW,250,0.0,0.0,43,0.00,,---,0.00,VWS V14.01,2013-03-13 15:13:00,
2013-03-13 11:18:00,53.3,31.4,30.01,NW,323,0.0,5.0,43,0.00,,---,0.00,VWS V14.01,2013-03-13 15:18:00,
2013-03-13 11:23:00,53.8,33.0,30.01,NE,56,0.0,2.0,45,0.00,,---,0.00,VWS V14.01,2013-03-13 15:23:00,
2013-03-13 11:28:00,54.2,34.4,30.01,North,10,2.0,3.0,47,0.00,,---,0.00,VWS V14.01,2013-03-13 15:28:00,
2013-03-13 11:33:00,54.7,34.3,30.01,North,0,0.0,0.0,46,0.00,,---,0.00,VWS V14.01,2013-03-13 15:33:00,
2013-03-13 11:38:00,54.8,34.4,30.01,NE,42,0.0,1.0,46,0.00,,---,0.00,VWS V14.01,2013-03-13 15:38:00,
2013-03-13 11:43:00,55.0,31.8,30.01,NW,304,0.0,0.0,41,0.00,,---,0.00,VWS V14.01,2013-03-13 15:43:00,
2013-03-13 11:48:00,55.3,31.4,30.00,NW,319,4.0,6.0,40,0.00,,---,0.00,VWS V14.01,2013-03-13 15:48:00,
2013-03-13 11:53:00,55.6,32.3,30.00,NNE,18,0.0,0.0,41,0.00,,---,0.00,VWS V14.01,2013-03-13 15:53:00,
2013-03-13 11:58:00,56.0,32.7,30.00,WNW,282,0.0,2.0,41,0.00,,---,0.00,VWS V14.01,2013-03-13 15:58:00,
2013-03-13 12:03:00,56.3,31.0,29.99,SW,233,3.0,7.0,38,0.00,,---,0.00,VWS V14.01,2013-03-13 16:03:00,
2013-03-13 12:08:00,56.5,31.2,29.99,NE,56,0.0,7.0,38,0.00,,---,0.00,VWS V14.01,2013-03-13 16:08:00,
2013-03-13 12:13:00,56.7,33.3,29.99,South,174,0.0,2.0,41,0.00,,---,0.00,VWS V14.01,2013-03-13 16:13:00,
2013-03-13 12:18:00,57.0,31.0,29.99,WSW,248,0.0,3.0,37,0.00,,---,0.00,VWS V14.01,2013-03-13 16:18:00,
2013-03-13 12:23:00,57.3,31.3,29.99,WSW,237,2.0,3.0,37,0.00,,---,0.00,VWS V14.01,2013-03-13 16:23:00,
2013-03-13 12:28:00,57.6,29.5,29.99,NW,309,0.0,6.0,34,0.00,,---,0.00,VWS V14.01,2013-03-13 16:28:00,
2013-03-13 12:33:00,58.0,29.1,29.99,NW,322,2.0,3.0,33,0.00,,---,0.00,VWS V14.01,2013-03-13 16:33:00,
2013-03-13 12:38:00,58.0,31.2,29.99,NNW,333,1.0,7.0,36,0.00,,---,0.00,VWS V14.01,2013-03-13 16:38:00,
2013-03-13 12:43:00,58.1,32.0,29.99,NW,318,6.0,6.0,37,0.00,,---,0.00,VWS V14.01,2013-03-13 16:43:00,
2013-03-13 12:48:00,58.4,31.6,29.98,West,274,2.0,7.0,36,0.00,,---,0.00,VWS V14.01,2013-03-13 16:48:00,
2013-03-13 12:53:00,58.7,31.1,29.98,SSW,208,3.0,3.0,35,0.00,,---,0.00,VWS V14.01,2013-03-13 16:53:00,
2013-03-13 12:58:00,58.9,30.6,29.98,NW,311,2.0,3.0,34,0.00,,---,0.00,VWS V14.01,2013-03-13 16:58:00,
2013-03-13 13:03:00,59.2,30.9,29.97,NW,312,3.0,3.0,34,0.00,,---,0.00,VWS V14.01,2013-03-13 17:03:00,
2013-03-13 13:08:00,59.3,31.7,29.97,NNW,328,6.0,6.0,35,0.00,,---,0.00,VWS V14.01,2013-03-13 17:08:00,
2013-03-13 13:13:00,59.5,31.1,29.97,SW,232,2.0,5.0,34,0.00,,---,0.00,VWS V14.01,2013-03-13 17:13:00,
2013-03-13 13:18:00,59.5,30.4,29.96,NW,308,0.0,9.0,33,0.00,,---,0.00,VWS V14.01,2013-03-13 17:18:00,
2013-03-13 13:23:00,59.8,32.8,29.96,WNW,299,4.0,5.0,36,0.00,,---,0.00,VWS V14.01,2013-03-13 17:23:00,
2013-03-13 13:28:00,60.1,30.9,29.96,West,260,0.0,6.0,33,0.00,,---,0.00,VWS V14.01,2013-03-13 17:28:00,
2013-03-13 13:33:00,60.4,31.9,29.95,WSW,254,3.0,3.0,34,0.00,,---,0.00,VWS V14.01,2013-03-13 17:33:00,
2013-03-13 13:38:00,60.5,32.0,29.95,NW,312,4.0,4.0,34,0.00,,---,0.00,VWS V14.01,2013-03-13 17:38:00,
2013-03-13 13:43:00,60.7,32.2,29.95,WNW,294,1.0,6.0,34,0.00,,---,0.00,VWS V14.01,2013-03-13 17:43:00,
2013-03-13 13:48:00,60.9,30.1,29.94,NW,325,6.0,6.0,31,0.00,,---,0.00,VWS V14.01,2013-03-13 17:48:00,
2013-03-13 13:53:00,61.0,31.0,29.94,SSW,213,0.0,0.0,32,0.00,,---,0.00,VWS V14.01,2013-03-13 17:53:00,
2013-03-13 13:58:00,61.2,29.5,29.94,WNW,287,0.0,3.0,30,0.00,,---,0.00,VWS V14.01,2013-03-13 17:58:00,
2013-03-13 14:03:00,61.6,29.9,29.93,NW,319,3.0,5.0,30,0.00,,---,0.00,VWS V14.01,2013-03-13 18:03:00,
2013-03-13 14:08:00,62.1,29.5,29.93,WNW,285,6.0,7.0,29,0.00,,---,0.00,VWS V14.01,2013-03-13 18:08:00,
2013-03-13 14:13:00,62.3,28.8,29.93,NNW,336,3.0,5.0,28,0.00,,---,0.00,VWS V14.01,2013-03-13 18:13:00,
2013-03-13 14:18:00,62.0,28.5,29.93,WNW,299,3.0,8.0,28,0.00,,---,0.00,VWS V14.01,2013-03-13 18:18:00,
2013-03-13 14:23:00,61.8,28.4,29.93,WNW,296,5.0,7.0,28,0.00,,---,0.00,VWS V14.01,2013-03-13 18:23:00,
2013-03-13 14:28:00,62.1,28.6,29.93,WNW,299,1.0,7.0,28,0.00,,---,0.00,VWS V14.01,2013-03-13 18:28:00,
2013-03-13 14:33:00,62.3,28.8,29.92,NW,305,1.0,2.0,28,0.00,,---,0.00,VWS V14.01,2013-03-13 18:33:00,
2013-03-13 14:38:00,62.3,28.8,29.92,WNW,285,0.0,5.0,28,0.00,,---,0.00,VWS V14.01,2013-03-13 18:38:00,
2013-03-13 14:43:00,62.3,30.5,29.92,WNW,282,2.0,3.0,30,0.00,,---,0.00,VWS V14.01,2013-03-13 18:43:00,
2013-03-13 14:48:00,62.6,29.1,29.91,West,278,0.0,8.0,28,0.00,,---,0.00,VWS V14.01,2013-03-13 18:48:00,
2013-03-13 14:53:00,63.1,29.5,29.91,West,270,0.0,0.0,28,0.00,,---,0.00,VWS V14.01,2013-03-13 18:53:00,
2013-03-13 14:58:00,63.2,28.7,29.91,WSW,240,2.0,6.0,27,0.00,,---,0.00,VWS V14.01,2013-03-13 18:58:00,
2013-03-13 15:03:00,63.4,28.9,29.90,WSW,248,0.0,0.0,27,0.00,,---,0.00,VWS V14.01,2013-03-13 19:03:00,
2013-03-13 15:08:00,62.9,29.3,29.90,NW,304,0.0,5.0,28,0.00,,---,0.00,VWS V14.01,2013-03-13 19:08:00,
2013-03-13 15:13:00,62.3,27.9,29.90,SW,223,2.0,2.0,27,0.00,,---,0.00,VWS V14.01,2013-03-13 19:13:00,
2013-03-13 15:18:00,61.6,27.3,29.90,NNW,330,0.0,5.0,27,0.00,,---,0.00,VWS V14.01,2013-03-13 19:18:00,
2013-03-13 15:23:00,60.9,27.6,29.90,NW,312,0.0,0.0,28,0.00,,---,0.00,VWS V14.01,2013-03-13 19:23:00,
2013-03-13 15:28:00,60.4,27.2,29.90,WNW,289,1.0,7.0,28,0.00,,---,0.00,VWS V14.01,2013-03-13 19:28:00,
2013-03-13 15:33:00,60.2,27.0,29.89,NW,308,0.0,3.0,28,0.00,,---,0.00,VWS V14.01,2013-03-13 19:33:00,
2013-03-13 15:38:00,60.2,27.9,29.89,NW,309,0.0,5.0,29,0.00,,---,0.00,VWS V14.01,2013-03-13 19:38:00,
2013-03-13 15:43:00,60.2,27.0,29.89,ENE,69,0.0,3.0,28,0.00,,---,0.00,VWS V14.01,2013-03-13 19:43:00,
2013-03-13 15:48:00,60.1,26.9,29.89,NW,306,3.0,5.0,28,0.00,,---,0.00,VWS V14.01,2013-03-13 19:48:00,
2013-03-13 15:53:00,59.9,28.4,29.89,NW,326,1.0,6.0,30,0.00,,---,0.00,VWS V14.01,2013-03-13 19:53:00,
2013-03-13 15:58:00,60.1,26.9,29.89,NW,326,3.0,6.0,28,0.00,,---,0.00,VWS V14.01,2013-03-13 19:58:00,
2013-03-13 16:03:00,60.2,27.0,29.89,NW,313,2.0,3.0,28,0.00,,---,0.00,VWS V14.01,2013-03-13 20:03:00,
2013-03-13 16:08:00,60.5,27.3,29.89,NW,316,2.0,7.0,28,0.00,,---,0.00,VWS V14.01,2013-03-13 20:08:00,
2013-03-13 16:13:00,60.7,27.4,29.89,NW,305,3.0,5.0,28,0.00,,---,0.00,VWS V14.01,2013-03-13 20:13:00,
2013-03-13 16:18:00,60.9,26.7,29.89,NW,318,6.0,6.0,27,0.00,,---,0.00,VWS V14.01,2013-03-13 20:18:00,
2013-03-13 16:23:00,60.7,24.7,29.89,NW,313,2.0,7.0,25,0.00,,---,0.00,VWS V14.01,2013-03-13 20:23:00,
2013-03-13 16:28:00,60.5,25.5,29.89,West,278,5.0,7.0,26,0.00,,---,0.00,VWS V14.01,2013-03-13 20:28:00,
2013-03-13 16:33:00,60.9,24.9,29.88,West,278,0.0,2.0,25,0.00,,---,0.00,VWS V14.01,2013-03-13 20:33:00,
2013-03-13 16:38:00,61.0,26.8,29.88,NW,316,2.0,6.0,27,0.00,,---,0.00,VWS V14.01,2013-03-13 20:38:00,
2013-03-13 16:43:00,60.7,27.4,29.88,West,274,1.0,8.0,28,0.00,,---,0.00,VWS V14.01,2013-03-13 20:43:00,
2013-03-13 16:48:00,60.4,28.0,29.88,NW,308,0.0,8.0,29,0.00,,---,0.00,VWS V14.01,2013-03-13 20:48:00,
2013-03-13 16:53:00,60.4,27.2,29.88,NNW,330,5.0,10.0,28,0.00,,---,0.00,VWS V14.01,2013-03-13 20:53:00,
2013-03-13 16:58:00,60.4,26.3,29.88,NNW,330,1.0,10.0,27,0.00,,---,0.00,VWS V14.01,2013-03-13 20:58:00,
2013-03-13 17:03:00,60.4,25.4,29.88,NW,316,0.0,0.0,26,0.00,,---,0.00,VWS V14.01,2013-03-13 21:03:00,
2013-03-13 17:08:00,60.5,25.5,29.88,NW,308,3.0,6.0,26,0.00,,---,0.00,VWS V14.01,2013-03-13 21:08:00,
2013-03-13 17:13:00,60.4,26.3,29.88,NW,312,1.0,5.0,27,0.00,,---,0.00,VWS V14.01,2013-03-13 21:13:00,
2013-03-13 17:18:00,60.4,26.3,29.89,NNW,339,1.0,5.0,27,0.00,,---,0.00,VWS V14.01,2013-03-13 21:18:00,
2013-03-13 17:23:00,60.4,27.2,29.89,NW,318,0.0,1.0,28,0.00,,---,0.00,VWS V14.01,2013-03-13 21:23:00,
2013-03-13 17:28:00,60.2,26.1,29.89,WNW,301,2.0,8.0,27,0.00,,---,0.00,VWS V14.01,2013-03-13 21:28:00,
2013-03-13 17:33:00,60.1,26.0,29.89,NW,319,0.0,5.0,27,0.00,,---,0.00,VWS V14.01,2013-03-13 21:33:00,
2013-03-13 17:38:00,59.8,26.6,29.89,NW,316,0.0,6.0,28,0.00,,---,0.00,VWS V14.01,2013-03-13 21:38:00,
2013-03-13 17:43:00,59.6,26.5,29.89,NW,319,1.0,4.0,28,0.00,,---,0.00,VWS V14.01,2013-03-13 21:43:00,
2013-03-13 17:48:00,59.5,25.5,29.89,NNE,13,2.0,6.0,27,0.00,,---,0.00,VWS V14.01,2013-03-13 21:48:00,
2013-03-13 17:53:00,59.2,26.1,29.89,WNW,287,2.0,6.0,28,0.00,,---,0.00,VWS V14.01,2013-03-13 21:53:00,
2013-03-13 17:58:00,59.0,25.1,29.89,NW,306,0.0,6.0,27,0.00,,---,0.00,VWS V14.01,2013-03-13 21:58:00,
2013-03-13 18:03:00,59.0,26.0,29.89,WNW,296,0.0,3.0,28,0.00,,---,0.00,VWS V14.01,2013-03-13 22:03:00,
2013-03-13 18:08:00,59.2,26.1,29.89,NW,308,0.0,4.0,28,0.00,,---,0.00,VWS V14.01,2013-03-13 22:08:00,
2013-03-13 18:13:00,59.5,26.4,29.89,NW,315,2.0,3.0,28,0.00,,---,0.00,VWS V14.01,2013-03-13 22:13:00,
2013-03-13 18:18:00,59.5,26.4,29.90,NNW,342,1.0,6.0,28,0.00,,---,0.00,VWS V14.01,2013-03-13 22:18:00,
2013-03-13 18:23:00,59.8,26.6,29.90,NW,319,3.0,3.0,28,0.00,,---,0.00,VWS V14.01,2013-03-13 22:23:00,
2013-03-13 18:28:00,59.6,27.3,29.90,NW,313,0.0,6.0,29,0.00,,---,0.00,VWS V14.01,2013-03-13 22:28:00,
2013-03-13 18:33:00,59.5,27.2,29.90,NW,313,1.0,2.0,29,0.00,,---,0.00,VWS V14.01,2013-03-13 22:33:00,
2013-03-13 18:38:00,59.3,27.1,29.90,NW,313,0.0,2.0,29,0.00,,---,0.00,VWS V14.01,2013-03-13 22:38:00,
2013-03-13 18:43:00,59.2,27.0,29.90,NW,319,2.0,3.0,29,0.00,,---,0.00,VWS V14.01,2013-03-13 22:43:00,
2013-03-13 18:48:00,58.9,26.7,29.90,WNW,296,3.0,6.0,29,0.00,,---,0.00,VWS V14.01,2013-03-13 22:48:00,
2013-03-13 18:53:00,58.6,27.3,29.90,NW,308,0.0,0.0,30,0.00,,---,0.00,VWS V14.01,2013-03-13 22:53:00,
2013-03-13 18:58:00,58.4,27.9,29.90,NW,308,0.0,2.0,31,0.00,,---,0.00,VWS V14.01,2013-03-13 22:58:00,
2013-03-13 19:03:00,58.1,28.4,29.91,NW,308,0.0,0.0,32,0.00,,---,0.00,VWS V14.01,2013-03-13 23:03:00,
2013-03-13 19:08:00,57.8,29.6,29.91,NW,308,0.0,2.0,34,0.00,,---,0.00,VWS V14.01,2013-03-13 23:08:00,
2013-03-13 19:13:00,57.5,30.1,29.91,NW,308,0.0,0.0,35,0.00,,---,0.00,VWS V14.01,2013-03-13 23:13:00,
2013-03-13 19:18:00,57.3,31.9,29.91,NW,308,0.0,0.0,38,0.00,,---,0.00,VWS V14.01,2013-03-13 23:18:00,
2013-03-13 19:23:00,57.0,32.3,29.91,NW,308,0.0,0.0,39,0.00,,---,0.00,VWS V14.01,2013-03-13 23:23:00,
2013-03-13 19:28:00,56.7,31.4,29.91,NW,308,0.0,0.0,38,0.00,,---,0.00,VWS V14.01,2013-03-13 23:28:00,
2013-03-13 19:33:00,56.5,34.9,29.92,NW,308,0.0,0.0,44,0.00,,---,0.00,VWS V14.01,2013-03-13 23:33:00,
2013-03-13 19:38:00,56.3,33.5,29.92,NW,308,0.0,0.0,42,0.00,,---,0.00,VWS V14.01,2013-03-13 23:38:00,
2013-03-13 19:43:00,56.0,33.2,29.92,NW,308,0.0,0.0,42,0.00,,---,0.00,VWS V14.01,2013-03-13 23:43:00,
2013-03-13 19:48:00,55.9,34.3,29.92,NW,308,0.0,0.0,44,0.00,,---,0.00,VWS V14.01,2013-03-13 23:48:00,
2013-03-13 19:53:00,55.7,34.7,29.92,NW,308,0.0,0.0,45,0.00,,---,0.00,VWS V14.01,2013-03-13 23:53:00,
2013-03-13 19:58:00,55.4,35.0,29.92,NW,308,0.0,0.0,46,0.00,,---,0.00,VWS V14.01,2013-03-13 23:58:00,
2013-03-13 20:03:00,55.1,33.6,29.93,NW,308,0.0,0.0,44,0.00,,---,0.00,VWS V14.01,2013-03-14 00:03:00,
2013-03-13 20:08:00,54.8,33.9,29.93,NW,308,0.0,0.0,45,0.00,,---,0.00,VWS V14.01,2013-03-14 00:08:00,
2013-03-13 20:13:00,54.7,34.9,29.93,NW,308,0.0,0.0,47,0.00,,---,0.00,VWS V14.01,2013-03-14 00:13:00,
2013-03-13 20:18:00,54.5,37.7,29.93,NW,308,0.0,0.0,53,0.00,,---,0.00,VWS V14.01,2013-03-14 00:18:00,
2013-03-13 20:23:00,54.2,35.5,29.93,NW,308,0.0,0.0,49,0.00,,---,0.00,VWS V14.01,2013-03-14 00:23:00,
2013-03-13 20:28:00,54.1,35.9,29.93,NW,308,0.0,0.0,50,0.00,,---,0.00,VWS V14.01,2013-03-14 00:28:00,
2013-03-13 20:33:00,53.9,35.2,29.93,NW,308,0.0,0.0,49,0.00,,---,0.00,VWS V14.01,2013-03-14 00:33:00,
2013-03-13 20:38:00,53.8,36.1,29.93,NW,308,0.0,0.0,51,0.00,,---,0.00,VWS V14.01,2013-03-14 00:38:00,
2013-03-13 20:43:00,53.6,36.4,29.93,NW,308,0.0,0.0,52,0.00,,---,0.00,VWS V14.01,2013-03-14 00:43:00,
2013-03-13 20:48:00,53.5,34.3,29.94,NW,308,0.0,0.0,48,0.00,,---,0.00,VWS V14.01,2013-03-14 00:48:00,
2013-03-13 20:53:00,53.1,35.5,29.94,NE,49,0.0,0.0,51,0.00,,---,0.00,VWS V14.01,2013-03-14 00:53:00,
2013-03-13 20:58:00,52.8,34.2,29.94,NNW,344,0.0,1.0,49,0.00,,---,0.00,VWS V14.01,2013-03-14 00:58:00,
2013-03-13 21:03:00,52.5,32.3,29.96,NNW,344,0.0,0.0,46,0.00,,---,0.00,VWS V14.01,2013-03-14 01:03:00,
2013-03-13 21:08:00,52.3,32.7,29.96,North,356,0.0,2.0,47,0.00,,---,0.00,VWS V14.01,2013-03-14 01:08:00,
2013-03-13 21:13:00,51.9,30.7,29.96,WNW,299,1.0,3.0,44,0.00,,---,0.00,VWS V14.01,2013-03-14 01:13:00,
2013-03-13 21:18:00,51.7,29.9,29.96,NNW,347,2.0,4.0,43,0.00,,---,0.00,VWS V14.01,2013-03-14 01:18:00,
2013-03-13 21:23:00,51.6,28.1,29.96,NNW,336,3.0,3.0,40,0.00,,---,0.00,VWS V14.01,2013-03-14 01:23:00,
2013-03-13 21:28:00,51.4,27.3,29.96,NW,305,3.0,5.0,39,0.00,,---,0.00,VWS V14.01,2013-03-14 01:28:00,
2013-03-13 21:33:00,51.1,26.4,29.98,NNW,339,2.0,3.0,38,0.00,,---,0.00,VWS V14.01,2013-03-14 01:33:00,
2013-03-13 21:38:00,51.0,26.3,29.98,North,0,1.0,3.0,38,0.00,,---,0.00,VWS V14.01,2013-03-14 01:38:00,
2013-03-13 21:43:00,50.8,26.8,29.98,NNW,347,0.0,3.0,39,0.00,,---,0.00,VWS V14.01,2013-03-14 01:43:00,
2013-03-13 21:48:00,50.5,26.5,29.99,North,359,0.0,3.0,39,0.00,,---,0.00,VWS V14.01,2013-03-14 01:48:00,
2013-03-13 21:53:00,50.4,26.4,29.99,NW,325,0.0,2.0,39,0.00,,---,0.00,VWS V14.01,2013-03-14 01:53:00,
2013-03-13 21:58:00,50.1,25.5,29.99,NW,320,2.0,5.0,38,0.00,,---,0.00,VWS V14.01,2013-03-14 01:58:00,
2013-03-13 22:03:00,49.8,25.2,30.00,NW,323,1.0,2.0,38,0.00,,---,0.00,VWS V14.01,2013-03-14 02:03:00,
2013-03-13 22:08:00,49.6,25.7,30.00,NNW,329,0.0,5.0,39,0.00,,---,0.00,VWS V14.01,2013-03-14 02:08:00,
2013-03-13 22:13:00,49.5,25.6,30.00,NNW,330,0.0,0.0,39,0.00,,---,0.00,VWS V14.01,2013-03-14 02:13:00,
2013-03-13 22:18:00,49.4,25.5,30.01,NW,323,1.0,7.0,39,0.00,,---,0.00,VWS V14.01,2013-03-14 02:18:00,
2013-03-13 22:23:00,49.2,24.1,30.01,NW,326,2.0,6.0,37,0.00,,---,0.00,VWS V14.01,2013-03-14 02:23:00,
2013-03-13 22:28:00,49.1,24.0,30.01,NNW,336,1.0,6.0,37,0.00,,---,0.00,VWS V14.01,2013-03-14 02:28:00,
2013-03-13 22:33:00,48.9,25.0,30.02,NW,309,2.0,5.0,39,0.00,,---,0.00,VWS V14.01,2013-03-14 02:33:00,
2013-03-13 22:38:00,48.8,25.6,30.02,NNW,342,3.0,5.0,40,0.00,,---,0.00,VWS V14.01,2013-03-14 02:38:00,
2013-03-13 22:43:00,48.6,26.0,30.02,WNW,302,2.0,2.0,41,0.00,,---,0.00,VWS V14.01,2013-03-14 02:43:00,
2013-03-13 22:48:00,48.3,25.7,30.02,North,0,0.0,3.0,41,0.00,,---,0.00,VWS V14.01,2013-03-14 02:48:00,
2013-03-13 22:53:00,48.2,25.6,30.02,WNW,282,0.0,0.0,41,0.00,,---,0.00,VWS V14.01,2013-03-14 02:53:00,
2013-03-13 22:57:00,46.2,24.4,30.05,NNW,332,2.0,6.0,42,0.00,,---,0.00,VWS V14.01,2013-03-14 02:57:00,
2013-03-13 22:58:00,48.0,25.4,30.02,WNW,295,2.0,3.0,41,0.00,,---,0.00,VWS V14.01,2013-03-14 02:58:00,
2013-03-13 22:59:00,46.1,24.3,30.05,North,350,2.0,6.0,42,0.00,,---,0.00,VWS V14.01,2013-03-14 02:59:00,
2013-03-13 23:00:00,46.1,24.3,30.05,NNW,339,5.0,6.0,42,0.00,,---,0.00,VWS V14.01,2013-03-14 03:00:00,
2013-03-13 23:01:00,46.1,24.9,30.05,NNW,329,0.0,5.0,43,0.00,,---,0.00,VWS V14.01,2013-03-14 03:01:00,
2013-03-13 23:03:00,47.7,25.2,30.03,NW,326,3.0,5.0,41,0.00,,---,0.00,VWS V14.01,2013-03-14 03:03:00,
2013-03-13 23:08:00,47.6,25.7,30.03,West,264,1.0,5.0,42,0.00,,---,0.00,VWS V14.01,2013-03-14 03:08:00,
2013-03-13 23:13:00,47.4,24.3,30.03,ENE,69,1.0,3.0,40,0.00,,---,0.00,VWS V14.01,2013-03-14 03:13:00,
2013-03-13 23:18:00,47.3,26.0,30.04,NNW,333,0.0,5.0,43,0.00,,---,0.00,VWS V14.01,2013-03-14 03:18:00,
2013-03-13 23:23:00,47.1,25.8,30.04,North,10,0.0,0.0,43,0.00,,---,0.00,VWS V14.01,2013-03-14 03:23:00,
2013-03-13 23:28:00,47.1,26.3,30.04,NW,312,0.0,2.0,44,0.00,,---,0.00,VWS V14.01,2013-03-14 03:28:00,
2013-03-13 23:33:00,47.0,25.7,30.04,NW,308,0.0,0.0,43,0.00,,---,0.00,VWS V14.01,2013-03-14 03:33:00,
2013-03-13 23:38:00,46.8,25.5,30.04,North,352,0.0,5.0,43,0.00,,---,0.00,VWS V14.01,2013-03-14 03:38:00,
2013-03-13 23:43:00,46.7,26.5,30.04,NW,316,2.0,2.0,45,0.00,,---,0.00,VWS V14.01,2013-03-14 03:43:00,
2013-03-13 23:48:00,46.5,26.3,30.05,NNW,332,0.0,5.0,45,0.00,,---,0.00,VWS V14.01,2013-03-14 03:48:00,
2013-03-13 23:53:00,46.4,25.1,30.05,NNW,329,2.0,3.0,43,0.00,,---,0.00,VWS V14.01,2013-03-14 03:53:00,
2013-03-13 23:58:00,46.2,24.4,30.05,NNW,332,1.0,6.0,42,0.00,,---,0.00,VWS V14.01,2013-03-14 03:58:00,